Time;durP1;ratioP1;P1;durP2;ratioP2;P2;SDS_P1;SDS_P2;PMS_P1;PMS_P2;Temp;Humidity;BMP_temperature;BMP_pressure;BME280_temperature;BME280_humidity;BME280_pressure;Samples;Min_cycle;Max_cycle;Signal;HPM_P1;HPM_P2
2022/03/09 00:01:15;;;;;;;15.93;9.73;;;-1.30;99.90;;;;;;4979610;28;20199;-37
2022/03/09 00:03:41;;;;;;;22.10;10.47;;;-1.30;99.90;;;;;;4995879;28;20294;-37
2022/03/09 00:06:07;;;;;;;19.93;10.50;;;-1.30;99.90;;;;;;4996137;28;20283;-37
2022/03/09 00:08:32;;;;;;;19.00;10.93;;;-1.20;99.90;;;;;;4996112;28;20179;-37
2022/03/09 00:10:58;;;;;;;16.63;9.83;;;-1.10;99.90;;;;;;4994974;28;20204;-37
2022/03/09 00:13:24;;;;;;;19.37;10.17;;;-1.10;99.90;;;;;;5013250;28;20164;-37
2022/03/09 00:15:50;;;;;;;19.03;10.37;;;-1.20;99.90;;;;;;4995536;28;20183;-37
2022/03/09 00:18:16;;;;;;;16.10;9.53;;;-1.20;99.90;;;;;;4979524;28;20190;-37
2022/03/09 00:20:42;;;;;;;16.60;9.60;;;-1.20;99.90;;;;;;4995296;28;20719;-37
2022/03/09 00:23:08;;;;;;;19.20;10.50;;;-1.20;99.90;;;;;;4995642;28;20230;-37
2022/03/09 00:25:33;;;;;;;15.67;9.50;;;-1.30;99.90;;;;;;4978928;28;20195;-37
2022/03/09 00:28:00;;;;;;;16.13;9.73;;;-1.30;99.90;;;;;;4995591;28;20551;-37
2022/03/09 00:30:27;;;;;;;20.17;10.57;;;-1.40;99.90;;;;;;5011112;28;20214;-37
2022/03/09 00:32:53;;;;;;;17.47;9.97;;;-1.60;99.90;;;;;;4995340;28;20194;-37
2022/03/09 00:35:19;;;;;;;17.73;9.57;;;-1.60;99.90;;;;;;4995117;28;20180;-36
2022/03/09 00:37:46;;;;;;;15.77;10.03;;;-1.50;99.90;;;;;;4994758;28;20233;-36
2022/03/09 00:40:12;;;;;;;19.43;11.60;;;-1.70;99.90;;;;;;4994753;28;20285;-37
2022/03/09 00:42:39;;;;;;;15.50;9.47;;;-1.60;99.90;;;;;;4994876;28;20222;-36
2022/03/09 00:45:06;;;;;;;15.17;9.67;;;-1.70;99.90;;;;;;4978714;28;20187;-37
2022/03/09 00:47:32;;;;;;;18.33;10.17;;;-1.90;99.90;;;;;;4994877;28;20543;-37
2022/03/09 00:49:59;;;;;;;17.90;9.97;;;-1.90;99.90;;;;;;4978667;28;20698;-36
2022/03/09 00:52:26;;;;;;;15.03;9.93;;;-1.80;99.90;;;;;;4978724;28;20171;-37
2022/03/09 00:54:51;;;;;;;19.60;10.63;;;-1.90;99.90;;;;;;4978428;28;20176;-37
2022/03/09 00:57:18;;;;;;;19.20;10.20;;;-1.90;99.90;;;;;;4995131;28;20551;-37
2022/03/09 00:59:44;;;;;;;15.17;9.63;;;-2.00;99.90;;;;;;4994178;28;20684;-37
2022/03/09 01:02:10;;;;;;;17.20;10.20;;;-2.00;99.90;;;;;;4994201;28;20185;-37
2022/03/09 01:04:37;;;;;;;17.37;9.90;;;-2.10;99.90;;;;;;4994664;28;20186;-36
2022/03/09 01:07:04;;;;;;;18.73;9.80;;;-2.10;99.90;;;;;;4978457;28;20183;-36
2022/03/09 01:09:30;;;;;;;15.27;9.63;;;-2.00;99.90;;;;;;4977766;28;20230;-36
2022/03/09 01:11:57;;;;;;;18.80;10.10;;;-1.90;99.90;;;;;;4978156;28;20191;-36
2022/03/09 01:14:24;;;;;;;16.30;9.77;;;-1.90;99.90;;;;;;4994554;28;20191;-37
2022/03/09 01:16:50;;;;;;;16.73;10.17;;;-1.90;99.90;;;;;;4994644;28;20194;-36
2022/03/09 01:19:16;;;;;;;17.13;9.53;;;-1.90;99.90;;;;;;4994047;28;20203;-36
2022/03/09 01:21:42;;;;;;;18.67;9.63;;;-2.00;99.90;;;;;;4978164;28;20218;-36
2022/03/09 01:24:07;;;;;;;18.00;10.20;;;-2.00;99.90;;;;;;4993877;28;20591;-36
2022/03/09 01:26:34;;;;;;;18.63;9.80;;;-2.10;99.90;;;;;;4977968;28;20206;-37
2022/03/09 01:29:00;;;;;;;17.50;10.13;;;-2.30;99.90;;;;;;4993852;28;20175;-37
2022/03/09 01:31:26;;;;;;;17.70;9.37;;;-2.40;99.90;;;;;;4994116;28;20729;-37
2022/03/09 01:33:52;;;;;;;16.33;9.27;;;-2.40;99.90;;;;;;4977943;28;20289;-36
2022/03/09 01:36:18;;;;;;;18.67;9.73;;;-2.40;99.90;;;;;;4993389;28;20179;-37
2022/03/09 01:38:44;;;;;;;17.47;9.80;;;-2.40;99.90;;;;;;4977487;28;20190;-37
2022/03/09 01:41:11;;;;;;;16.67;10.13;;;-2.40;99.90;;;;;;4977342;28;20211;-37
2022/03/09 01:43:39;;;;;;;14.27;9.60;;;-2.40;99.90;;;;;;4994072;28;20207;-37
2022/03/09 01:46:05;;;;;;;19.00;10.43;;;-2.40;99.90;;;;;;4978077;28;20179;-36
2022/03/09 01:48:31;;;;;;;18.20;10.03;;;-2.50;99.90;;;;;;4993923;28;20182;-37
2022/03/09 01:50:57;;;;;;;18.43;9.80;;;-2.60;99.90;;;;;;4993169;28;20556;-38
2022/03/09 01:53:22;;;;;;;14.83;9.20;;;-2.70;99.90;;;;;;4993942;28;20190;-37
2022/03/09 01:55:48;;;;;;;17.37;9.00;;;-2.60;99.90;;;;;;4977371;28;20187;-36
2022/03/09 01:58:15;;;;;;;17.07;9.30;;;-2.70;99.90;;;;;;4993810;28;20229;-37
2022/03/09 02:00:40;;;;;;;13.80;8.93;;;-2.70;99.90;;;;;;4977155;28;20242;-36
2022/03/09 02:03:06;;;;;;;16.97;9.57;;;-2.60;99.90;;;;;;4993661;28;20301;-38
2022/03/09 02:05:34;;;;;;;17.23;9.13;;;-2.50;99.90;;;;;;4977373;28;20183;-37
2022/03/09 02:10:46;;;;;;;15.93;8.77;;;-2.60;99.90;;;;;;4993302;28;20226;-37
2022/03/09 02:13:11;;;;;;;15.90;9.17;;;-2.50;99.90;;;;;;4993876;28;20212;-37
2022/03/09 02:15:37;;;;;;;17.47;9.27;;;-2.50;99.90;;;;;;4993703;28;20179;-37
2022/03/09 02:18:04;;;;;;;15.83;9.47;;;-2.50;99.90;;;;;;5010318;28;20180;-37
2022/03/09 02:20:31;;;;;;;14.23;9.00;;;-2.50;99.90;;;;;;5009445;28;20214;-37
2022/03/09 02:22:58;;;;;;;17.90;9.37;;;-2.50;99.90;;;;;;4977448;28;20219;-37
2022/03/09 02:25:24;;;;;;;16.17;9.20;;;-2.60;99.90;;;;;;4977716;28;20183;-38
2022/03/09 02:27:50;;;;;;;17.83;9.07;;;-2.60;99.90;;;;;;4977917;28;20190;-37
2022/03/09 02:30:18;;;;;;;17.47;9.53;;;-2.60;99.90;;;;;;4977270;28;20200;-37
2022/03/09 02:32:47;;;;;;;17.27;9.10;;;-2.70;99.90;;;;;;4977471;28;20187;-37
2022/03/09 02:35:15;;;;;;;18.00;9.13;;;-2.70;99.90;;;;;;4977339;28;20183;-39
2022/03/09 02:37:41;;;;;;;16.03;9.93;;;-2.70;99.90;;;;;;4993602;28;20669;-37
2022/03/09 02:40:12;;;;;;;18.83;10.50;;;-2.70;99.90;;;;;;4993323;28;20219;-38
2022/03/09 02:42:38;;;;;;;16.77;9.97;;;-2.70;99.90;;;;;;4996026;28;20199;-37
2022/03/09 02:45:05;;;;;;;18.70;9.97;;;-2.70;99.90;;;;;;4980785;28;20203;-37
2022/03/09 02:47:31;;;;;;;16.63;9.57;;;-2.60;99.90;;;;;;4979996;28;20190;-37
2022/03/09 02:49:57;;;;;;;15.33;9.33;;;-2.40;99.90;;;;;;4980956;28;20203;-37
2022/03/09 02:52:23;;;;;;;18.57;10.33;;;-2.40;99.90;;;;;;4997744;28;20179;-37
2022/03/09 02:54:51;;;;;;;22.77;10.03;;;-2.40;99.90;;;;;;4997190;28;20250;-37
2022/03/09 02:57:17;;;;;;;16.23;8.93;;;-2.40;99.90;;;;;;4996936;28;20179;-38
2022/03/09 02:59:43;;;;;;;18.40;10.50;;;-2.50;99.90;;;;;;4980697;28;20206;-38
2022/03/09 03:02:09;;;;;;;16.20;9.87;;;-2.50;99.90;;;;;;4997189;28;20184;-37
2022/03/09 03:04:35;;;;;;;15.80;8.70;;;-2.50;99.90;;;;;;4980606;28;20222;-38
2022/03/09 03:07:01;;;;;;;14.90;8.40;;;-2.50;99.90;;;;;;4980925;28;20179;-37
2022/03/09 03:09:26;;;;;;;15.97;9.20;;;-2.60;99.90;;;;;;4980406;28;20535;-37
2022/03/09 03:11:52;;;;;;;17.73;9.17;;;-2.60;99.90;;;;;;4980804;28;20190;-37
2022/03/09 03:14:18;;;;;;;17.40;9.13;;;-2.60;99.90;;;;;;4996672;28;20215;-39
2022/03/09 03:16:44;;;;;;;16.53;9.03;;;-2.60;99.90;;;;;;4996524;28;20241;-39
2022/03/09 03:19:10;;;;;;;15.93;9.23;;;-2.60;99.90;;;;;;4980002;28;20225;-37
2022/03/09 03:21:36;;;;;;;16.77;9.27;;;-2.60;99.90;;;;;;4979318;28;20210;-37
2022/03/09 03:24:03;;;;;;;16.93;9.87;;;-2.60;99.90;;;;;;4980496;28;20213;-38
2022/03/09 03:26:29;;;;;;;16.87;9.73;;;-2.60;99.90;;;;;;4995830;28;20171;-37
2022/03/09 03:28:55;;;;;;;19.47;10.70;;;-2.70;99.90;;;;;;4996468;28;20167;-37
2022/03/09 03:31:21;;;;;;;16.77;10.20;;;-2.80;99.90;;;;;;4979893;28;20210;-37
2022/03/09 03:33:47;;;;;;;17.23;10.77;;;-2.70;99.90;;;;;;4996079;28;20187;-37
2022/03/09 03:36:15;;;;;;;19.83;10.80;;;-2.70;99.90;;;;;;4996137;28;20187;-37
2022/03/09 03:38:41;;;;;;;19.40;10.40;;;-2.70;99.90;;;;;;4996369;28;20242;-40
2022/03/09 03:41:08;;;;;;;18.03;10.33;;;-2.70;99.90;;;;;;4979778;28;20215;-38
2022/03/09 03:43:34;;;;;;;16.87;9.67;;;-2.70;99.90;;;;;;4995344;28;20218;-39
2022/03/09 03:46:00;;;;;;;16.70;9.77;;;-2.90;99.90;;;;;;4980020;28;20179;-37
2022/03/09 03:48:26;;;;;;;15.80;9.30;;;-3.00;99.90;;;;;;4995917;28;20205;-37
2022/03/09 03:50:52;;;;;;;16.67;9.57;;;-3.00;99.90;;;;;;4979532;28;20199;-37
2022/03/09 03:53:18;;;;;;;17.73;10.13;;;-3.10;99.90;;;;;;4996041;28;20191;-36
2022/03/09 03:55:46;;;;;;;16.87;9.57;;;-3.20;99.90;;;;;;4995760;28;20214;-37
2022/03/09 03:58:12;;;;;;;16.60;9.30;;;-3.20;99.90;;;;;;4979872;28;20184;-37
2022/03/09 04:00:38;;;;;;;17.40;9.20;;;-3.30;99.90;;;;;;5012416;28;20250;-37
2022/03/09 04:03:04;;;;;;;15.37;8.83;;;-3.30;99.90;;;;;;4979105;28;20211;-37
2022/03/09 04:05:30;;;;;;;15.33;9.00;;;-3.30;99.90;;;;;;4995660;28;20183;-38
2022/03/09 04:07:56;;;;;;;18.17;9.70;;;-3.30;99.90;;;;;;4995835;28;20179;-38
2022/03/09 04:10:23;;;;;;;16.67;9.40;;;-3.30;99.90;;;;;;5013122;28;20223;-37
2022/03/09 04:12:48;;;;;;;15.47;8.60;;;-3.40;99.90;;;;;;4979151;28;20250;-37
2022/03/09 04:15:14;;;;;;;15.87;9.80;;;-3.30;99.90;;;;;;4979413;28;20180;-37
2022/03/09 04:17:45;;;;;;;14.43;8.50;;;-3.30;99.90;;;;;;4979588;28;20198;-39
2022/03/09 04:20:12;;;;;;;16.23;9.27;;;-3.40;99.90;;;;;;5019708;23;20298;-28
2022/03/09 04:22:39;;;;;;;15.80;9.17;;;-3.40;99.90;;;;;;4958670;28;20224;-31
2022/03/09 04:25:06;;;;;;;18.07;9.47;;;-3.40;99.90;;;;;;4957915;28;20187;-31
2022/03/09 04:27:32;;;;;;;16.47;9.33;;;-3.40;99.90;;;;;;4975963;28;20199;-31
2022/03/09 04:29:58;;;;;;;18.97;9.40;;;-3.40;99.90;;;;;;4962475;28;20237;-31
2022/03/09 04:32:25;;;;;;;18.37;9.37;;;-3.40;99.90;;;;;;4979261;28;20175;-31
2022/03/09 04:34:52;;;;;;;16.77;9.07;;;-3.40;99.90;;;;;;5013094;28;20172;-31
2022/03/09 04:37:19;;;;;;;17.00;9.33;;;-3.50;99.90;;;;;;4995380;28;20185;-30
2022/03/09 04:39:46;;;;;;;17.73;9.57;;;-3.50;99.90;;;;;;4994470;28;20187;-31
2022/03/09 04:42:12;;;;;;;16.20;9.17;;;-3.60;99.90;;;;;;4978706;28;20198;-31
2022/03/09 04:44:38;;;;;;;16.33;8.83;;;-3.60;99.90;;;;;;4994697;28;20250;-31
2022/03/09 04:47:04;;;;;;;16.90;9.43;;;-3.60;99.90;;;;;;5012609;28;20194;-30
2022/03/09 04:49:30;;;;;;;16.33;9.30;;;-3.70;99.90;;;;;;4978520;28;20263;-30
2022/03/09 04:51:56;;;;;;;14.70;8.87;;;-3.80;99.90;;;;;;4978713;28;20298;-30
2022/03/09 04:54:22;;;;;;;13.20;8.03;;;-3.80;99.90;;;;;;4978667;28;20232;-30
2022/03/09 04:56:47;;;;;;;16.90;9.20;;;-3.90;99.90;;;;;;4994944;28;20190;-30
2022/03/09 04:59:14;;;;;;;16.87;9.47;;;-3.90;99.90;;;;;;4978133;28;20207;-30
2022/03/09 05:01:40;;;;;;;19.40;9.80;;;-3.90;99.90;;;;;;4978621;28;20202;-30
2022/03/09 05:04:06;;;;;;;16.93;8.87;;;-4.00;99.90;;;;;;4994599;28;20203;-30
2022/03/09 05:06:32;;;;;;;19.20;9.90;;;-4.00;99.90;;;;;;4978396;28;20270;-31
2022/03/09 05:08:57;;;;;;;40.10;18.70;;;-4.10;99.90;;;;;;4977800;28;20192;-31
2022/03/09 05:11:23;;;;;;;290.10;99.87;;;-4.20;99.90;;;;;;4977090;28;20203;-31
2022/03/09 05:13:49;;;;;;;74.53;30.67;;;-4.20;99.90;;;;;;4994169;28;20190;-31
2022/03/09 05:16:15;;;;;;;22.07;11.73;;;-4.30;99.90;;;;;;4994490;28;20206;-30
2022/03/09 05:18:41;;;;;;;17.47;9.23;;;-4.20;99.90;;;;;;4978191;28;20187;-31
2022/03/09 05:21:08;;;;;;;19.17;9.87;;;-4.30;99.90;;;;;;4978026;28;20260;-31
2022/03/09 05:23:34;;;;;;;15.47;9.13;;;-4.30;99.90;;;;;;4990440;28;20214;-30
2022/03/09 05:26:00;;;;;;;15.73;9.23;;;-4.30;99.90;;;;;;4983139;28;20186;-30
2022/03/09 05:28:27;;;;;;;17.17;9.03;;;-4.30;99.90;;;;;;4969220;28;20198;-31
2022/03/09 05:30:53;;;;;;;16.20;8.77;;;-4.30;99.90;;;;;;4982573;28;20746;-31
2022/03/09 05:33:19;;;;;;;17.40;9.17;;;-4.30;99.90;;;;;;4983266;28;20271;-30
2022/03/09 05:35:45;;;;;;;18.00;9.23;;;-4.30;99.90;;;;;;4984342;28;20183;-31
2022/03/09 05:38:11;;;;;;;16.67;9.60;;;-4.30;99.90;;;;;;4968044;28;20184;-31
2022/03/09 05:40:36;;;;;;;14.43;9.33;;;-4.20;99.90;;;;;;4984646;28;20211;-31
2022/03/09 05:43:02;;;;;;;18.20;9.70;;;-4.20;99.90;;;;;;4976467;28;20302;-30
2022/03/09 05:45:28;;;;;;;19.47;11.13;;;-4.30;99.90;;;;;;4960083;28;20192;-30
2022/03/09 05:47:54;;;;;;;18.57;10.13;;;-4.30;99.90;;;;;;4976899;28;20258;-31
2022/03/09 05:50:21;;;;;;;19.70;9.77;;;-4.40;99.90;;;;;;4975064;28;20221;-31
2022/03/09 05:52:47;;;;;;;16.07;8.57;;;-4.50;99.90;;;;;;4993998;28;20273;-30
2022/03/09 05:55:13;;;;;;;17.90;8.97;;;-4.60;99.90;;;;;;4977596;28;20206;-30
2022/03/09 05:57:38;;;;;;;17.43;8.60;;;-4.60;99.90;;;;;;4993847;28;20191;-30
2022/03/09 06:00:06;;;;;;;19.20;9.70;;;-4.60;99.90;;;;;;4993737;28;20199;-30
2022/03/09 06:02:37;;;;;;;21.17;11.33;;;-4.50;99.90;;;;;;4994483;28;20183;-30
2022/03/09 06:05:03;;;;;;;20.13;10.27;;;-4.40;99.90;;;;;;4993639;28;20190;-30
2022/03/09 06:07:30;;;;;;;18.67;10.43;;;-4.40;99.90;;;;;;4977545;28;20175;-30
2022/03/09 06:09:56;;;;;;;16.57;9.33;;;-4.30;99.90;;;;;;4989673;28;20208;-30
2022/03/09 06:12:22;;;;;;;15.37;9.27;;;-4.20;99.90;;;;;;4974078;28;20540;-30
2022/03/09 06:14:48;;;;;;;19.00;9.27;;;-4.00;99.90;;;;;;4958203;28;20186;-30
2022/03/09 06:17:14;;;;;;;19.87;10.17;;;-4.00;99.90;;;;;;4974214;28;20176;-30
2022/03/09 06:19:40;;;;;;;23.43;12.20;;;-3.90;99.90;;;;;;4957698;28;20195;-30
2022/03/09 06:22:06;;;;;;;24.20;12.43;;;-3.90;99.90;;;;;;4958064;28;20641;-30
2022/03/09 06:24:31;;;;;;;24.10;12.83;;;-3.80;99.90;;;;;;4961765;28;20227;-30
2022/03/09 06:26:58;;;;;;;23.93;12.10;;;-3.80;99.90;;;;;;4962039;28;20265;-30
2022/03/09 06:29:25;;;;;;;17.60;9.77;;;-3.80;99.90;;;;;;4961691;28;20203;-30
2022/03/09 06:31:51;;;;;;;20.17;11.30;;;-3.80;99.90;;;;;;4976019;28;20253;-30
2022/03/09 06:34:18;;;;;;;20.63;11.47;;;-3.80;99.90;;;;;;4997482;28;20195;-30
2022/03/09 06:36:44;;;;;;;22.40;10.50;;;-3.80;99.90;;;;;;4981165;28;20182;-30
2022/03/09 06:39:16;;;;;;;19.60;9.43;;;-3.80;99.90;;;;;;4996934;28;20185;-30
2022/03/09 06:41:44;;;;;;;21.53;9.37;;;-3.80;99.90;;;;;;4981760;23;20256;-34
2022/03/09 06:44:12;;;;;;;16.03;8.93;;;-3.80;99.90;;;;;;4993742;28;20711;-33
2022/03/09 06:46:38;;;;;;;16.17;9.07;;;-3.80;99.90;;;;;;4994346;28;20258;-34
2022/03/09 06:49:04;;;;;;;18.60;9.63;;;-4.10;99.90;;;;;;4995142;28;20264;-33
2022/03/09 06:51:30;;;;;;;19.03;9.87;;;-4.10;99.90;;;;;;4977775;28;20286;-34
2022/03/09 06:56:34;;;;;;;21.47;12.27;;;-3.90;99.90;;;;;;4934992;29;20682;-34
2022/03/09 06:58:59;;;;;;;21.17;11.47;;;-3.70;99.90;;;;;;4935295;29;20178;-34
2022/03/09 07:01:25;;;;;;;21.80;11.87;;;-3.60;99.90;;;;;;4943770;29;20177;-36
2022/03/09 07:03:51;;;;;;;20.10;11.60;;;-3.50;99.90;;;;;;4935492;29;20228;-36
2022/03/09 07:06:17;;;;;;;21.37;11.50;;;-3.30;99.90;;;;;;4920352;29;20233;-37
2022/03/09 07:08:43;;;;;;;19.40;11.60;;;-3.20;99.90;;;;;;4919854;29;20178;-36
2022/03/09 07:11:09;;;;;;;20.70;12.03;;;-3.10;99.90;;;;;;4918931;29;20260;-38
2022/03/09 07:13:34;;;;;;;22.63;12.43;;;-2.90;99.90;;;;;;4919174;29;20217;-39
2022/03/09 07:16:00;;;;;;;25.90;12.63;;;-2.70;99.90;;;;;;4935578;29;20178;-37
2022/03/09 07:18:26;;;;;;;23.90;12.77;;;-2.60;99.90;;;;;;4935153;29;20300;-39
2022/03/09 07:20:52;;;;;;;23.87;12.97;;;-2.50;99.90;;;;;;4919589;29;20197;-36
2022/03/09 07:23:17;;;;;;;23.87;13.63;;;-2.30;99.90;;;;;;4919779;29;20221;-36
2022/03/09 07:25:44;;;;;;;20.83;12.33;;;-2.20;99.90;;;;;;4919587;29;20201;-37
2022/03/09 07:28:11;;;;;;;23.47;13.07;;;-2.10;99.90;;;;;;4919452;29;20189;-37
2022/03/09 07:30:37;;;;;;;21.93;12.30;;;-2.00;99.90;;;;;;4919228;29;20195;-37
2022/03/09 07:33:03;;;;;;;22.80;13.13;;;-1.90;99.90;;;;;;4935231;29;20234;-38
2022/03/09 07:35:28;;;;;;;21.17;12.13;;;-1.80;99.90;;;;;;4918066;29;20228;-38
2022/03/09 07:37:54;;;;;;;22.03;13.13;;;-1.70;99.90;;;;;;4919689;29;20182;-36
2022/03/09 07:40:21;;;;;;;25.27;12.93;;;-1.60;99.90;;;;;;4919169;29;20214;-46
2022/03/09 07:42:48;;;;;;;21.57;13.10;;;-1.50;99.90;;;;;;4930319;29;20262;-47
2022/03/09 07:45:14;;;;;;;22.90;13.00;;;-1.30;99.90;;;;;;4937789;29;20210;-47
2022/03/09 07:47:40;;;;;;;22.47;13.20;;;-1.20;99.90;;;;;;4935216;29;20178;-47
2022/03/09 07:50:07;;;;;;;19.50;11.87;;;-1.00;99.90;;;;;;4918920;29;20190;-47
2022/03/09 07:52:34;;;;;;;22.20;12.27;;;-0.90;99.90;;;;;;4934790;29;20186;-47
2022/03/09 07:54:59;;;;;;;22.27;12.90;;;-0.70;99.90;;;;;;4918977;29;20193;-47
2022/03/09 07:57:25;;;;;;;21.43;13.00;;;-0.60;99.90;;;;;;4918699;29;20178;-47
2022/03/09 07:59:51;;;;;;;23.30;13.13;;;-0.60;99.90;;;;;;4918206;29;20273;-46
2022/03/09 08:02:17;;;;;;;19.70;11.63;;;-0.50;99.90;;;;;;4934684;29;20182;-47
2022/03/09 08:04:43;;;;;;;25.37;12.27;;;-0.50;99.90;;;;;;4918418;29;20274;-47
2022/03/09 08:07:09;;;;;;;20.67;12.43;;;-0.40;99.90;;;;;;4934773;29;20265;-47
2022/03/09 08:09:34;;;;;;;19.10;11.60;;;-0.20;99.90;;;;;;4918450;29;20257;-47
2022/03/09 08:12:00;;;;;;;19.93;11.90;;;-0.10;99.90;;;;;;4918951;29;20200;-48
2022/03/09 08:14:26;;;;;;;21.87;12.87;;;0.00;99.90;;;;;;4918061;29;20197;-47
2022/03/09 08:16:52;;;;;;;21.57;12.53;;;0.20;99.90;;;;;;4918477;29;20190;-47
2022/03/09 08:19:18;;;;;;;19.77;12.07;;;0.30;99.90;;;;;;4918176;29;20206;-47
2022/03/09 08:21:43;;;;;;;19.13;11.60;;;0.30;99.90;;;;;;4933562;29;20206;-48
2022/03/09 08:24:09;;;;;;;17.97;11.43;;;0.50;99.90;;;;;;4933890;29;20229;-47
2022/03/09 08:26:37;;;;;;;17.23;11.67;;;0.80;99.90;;;;;;4930951;29;20184;-48
2022/03/09 08:29:03;;;;;;;25.00;12.67;;;0.90;99.90;;;;;;4925525;29;20259;-48
2022/03/09 08:31:29;;;;;;;19.27;12.30;;;1.00;99.90;;;;;;4925323;29;20652;-47
2022/03/09 08:33:55;;;;;;;19.57;11.63;;;1.20;99.90;;;;;;4908395;29;20262;-48
2022/03/09 08:36:22;;;;;;;19.47;12.47;;;1.30;99.90;;;;;;4908273;29;20180;-48
2022/03/09 08:38:48;;;;;;;19.27;11.67;;;1.40;99.90;;;;;;4923589;29;20183;-48
2022/03/09 08:41:14;;;;;;;19.30;11.73;;;1.60;99.90;;;;;;4925600;29;20276;-48
2022/03/09 08:43:40;;;;;;;16.67;11.10;;;1.90;99.90;;;;;;4900884;29;20302;-48
2022/03/09 08:46:06;;;;;;;18.50;11.80;;;2.10;99.90;;;;;;4914549;29;20190;-47
2022/03/09 08:48:33;;;;;;;20.87;12.20;;;2.30;99.90;;;;;;4899433;29;20260;-47
2022/03/09 08:50:59;;;;;;;18.60;11.30;;;2.50;99.90;;;;;;4898852;29;20257;-47
2022/03/09 08:53:24;;;;;;;18.00;11.43;;;2.60;99.90;;;;;;4899184;29;20217;-46
2022/03/09 08:55:50;;;;;;;17.27;11.23;;;2.60;99.90;;;;;;4916800;29;20201;-46
2022/03/09 08:58:16;;;;;;;19.60;11.70;;;2.80;99.90;;;;;;4917685;29;20665;-47
2022/03/09 09:00:42;;;;;;;17.63;11.97;;;3.00;99.90;;;;;;4933349;29;20181;-47
2022/03/09 09:03:09;;;;;;;18.90;11.90;;;3.20;99.90;;;;;;4925383;29;20234;-46
2022/03/09 09:05:34;;;;;;;18.33;11.70;;;3.40;99.90;;;;;;4898334;29;20326;-46
2022/03/09 09:08:00;;;;;;;17.13;11.67;;;3.60;99.90;;;;;;4914446;29;20246;-47
2022/03/09 09:10:26;;;;;;;17.10;10.83;;;3.80;99.90;;;;;;4914578;29;20178;-48
2022/03/09 09:12:53;;;;;;;18.40;11.60;;;3.90;99.90;;;;;;4898495;29;20214;-48
2022/03/09 09:15:20;;;;;;;17.23;11.93;;;4.00;99.90;;;;;;4914342;29;20296;-47
2022/03/09 09:17:46;;;;;;;19.03;11.87;;;4.10;99.90;;;;;;4914399;29;20652;-48
2022/03/09 09:20:12;;;;;;;21.57;13.77;;;4.30;99.90;;;;;;4922895;28;20208;-48
2022/03/09 09:22:42;;;;;;;18.80;12.20;;;4.40;99.90;;;;;;4951642;28;20264;-48
2022/03/09 09:25:09;;;;;;;17.47;11.83;;;4.30;99.90;;;;;;4936277;29;20184;-48
2022/03/09 09:27:35;;;;;;;16.83;11.30;;;4.40;99.90;;;;;;4952184;29;20209;-48
2022/03/09 09:30:01;;;;;;;21.30;12.80;;;4.60;99.90;;;;;;4929006;29;20242;-48
2022/03/09 09:32:27;;;;;;;18.17;11.40;;;4.50;99.90;;;;;;4933422;29;20272;-48
2022/03/09 09:34:53;;;;;;;16.70;11.70;;;4.70;99.90;;;;;;4930244;29;20245;-48
2022/03/09 09:37:19;;;;;;;20.73;12.60;;;4.90;99.90;;;;;;4924362;29;20182;-48
2022/03/09 09:39:46;;;;;;;23.60;12.83;;;5.10;99.90;;;;;;4897569;29;20190;-47
2022/03/09 09:42:12;;;;;;;20.07;12.50;;;5.30;99.90;;;;;;4924343;29;20332;-48
2022/03/09 09:44:42;;;;;;;14.37;10.73;;;5.50;99.70;;;;;;4925219;29;20285;-48
2022/03/09 09:47:13;;;;;;;16.70;10.77;;;5.60;99.00;;;;;;4940391;29;20176;-48
2022/03/09 09:49:41;;;;;;;18.13;11.43;;;5.70;98.50;;;;;;4925438;29;20210;-48
2022/03/09 09:52:08;;;;;;;14.93;10.63;;;5.60;98.70;;;;;;4963210;28;20314;-48
2022/03/09 09:54:35;;;;;;;17.03;10.53;;;5.80;98.60;;;;;;4964146;28;20221;-48
2022/03/09 09:57:02;;;;;;;16.90;10.43;;;5.80;98.00;;;;;;4946294;28;20235;-47
2022/03/09 09:59:29;;;;;;;16.00;10.93;;;5.80;98.20;;;;;;4925096;29;20189;-46
2022/03/09 10:01:55;;;;;;;15.03;10.40;;;5.90;97.50;;;;;;4924708;29;20229;-47
2022/03/09 10:04:22;;;;;;;16.33;10.93;;;6.10;97.60;;;;;;4947022;29;20214;-47
2022/03/09 10:06:48;;;;;;;14.87;10.07;;;6.20;97.30;;;;;;4940836;28;20187;-47
2022/03/09 10:09:14;;;;;;;16.27;11.03;;;6.30;96.60;;;;;;4925181;29;20184;-47
2022/03/09 10:11:59;;;;;;;15.43;11.10;;;6.30;96.90;;;;;;4940173;29;20186;-47
2022/03/09 10:14:43;;;;;;;17.73;11.33;;;6.50;97.10;;;;;;4924567;29;20305;-48
2022/03/09 10:17:11;;;;;;;16.43;11.40;;;6.50;97.10;;;;;;4940442;29;20186;-48
2022/03/09 10:19:42;;;;;;;17.30;10.80;;;6.60;97.00;;;;;;4924929;29;20186;-48
2022/03/09 10:22:27;;;;;;;19.80;11.77;;;6.80;96.50;;;;;;4909490;29;20195;-48
2022/03/09 10:25:16;;;;;;;16.83;10.87;;;7.00;96.00;;;;;;4897782;29;20223;-48
2022/03/09 10:27:52;;;;;;;18.50;10.90;;;7.00;96.80;;;;;;4913217;29;20196;-48
2022/03/09 10:30:20;;;;;;;14.67;10.67;;;7.30;96.40;;;;;;4923752;29;20188;-48
2022/03/09 10:32:58;;;;;;;17.30;11.10;;;7.40;96.00;;;;;;4955729;28;20209;-48
2022/03/09 10:35:31;;;;;;;17.30;11.33;;;7.60;96.60;;;;;;4920792;29;20181;-48
2022/03/09 10:38:01;;;;;;;15.57;11.13;;;7.80;96.70;;;;;;4926483;29;20204;-48
2022/03/09 10:40:28;;;;;;;18.67;11.83;;;8.00;96.00;;;;;;4924225;29;20194;-48
2022/03/09 10:43:13;;;;;;;14.53;11.13;;;8.10;95.30;;;;;;4900471;29;20618;-48
2022/03/09 10:46:16;;;;;;;15.93;10.70;;;8.20;94.90;;;;;;4922957;29;20219;-47
2022/03/09 10:49:07;;;;;;;18.77;12.40;;;8.40;93.80;;;;;;4854330;29;20274;-47
2022/03/09 10:51:35;;;;;;;14.47;10.53;;;8.40;94.40;;;;;;4929857;29;20194;-47
2022/03/09 10:54:11;;;;;;;16.37;11.47;;;8.40;93.70;;;;;;4915221;29;20205;-47
2022/03/09 10:56:38;;;;;;;16.03;11.13;;;8.50;93.10;;;;;;4954136;28;20193;-47
2022/03/09 10:59:24;;;;;;;17.80;11.63;;;8.60;93.20;;;;;;4921619;29;20220;-47
2022/03/09 11:02:21;;;;;;;14.30;10.83;;;8.80;93.00;;;;;;4930078;29;20262;-47
2022/03/09 11:05:10;;;;;;;16.90;11.67;;;8.90;91.80;;;;;;4902301;29;20261;-47
2022/03/09 11:07:37;;;;;;;15.93;12.03;;;9.00;91.90;;;;;;4912015;29;20281;-47
2022/03/09 11:10:09;;;;;;;16.73;11.53;;;9.20;92.80;;;;;;4902434;29;20230;-47
2022/03/09 11:12:38;;;;;;;20.70;12.03;;;9.40;93.30;;;;;;4923971;29;20182;-47
2022/03/09 11:15:04;;;;;;;16.77;11.70;;;9.30;92.80;;;;;;4926137;29;20182;-47
2022/03/09 11:17:30;;;;;;;16.33;11.37;;;9.50;93.10;;;;;;4911434;29;20174;-47
2022/03/09 11:19:58;;;;;;;20.10;12.10;;;9.70;92.40;;;;;;4928431;29;20174;-48
2022/03/09 11:22:24;;;;;;;17.57;12.20;;;9.90;92.70;;;;;;4916100;29;20237;-47
2022/03/09 11:24:52;;;;;;;16.30;11.10;;;10.10;91.70;;;;;;4910272;29;20210;-47
2022/03/09 11:27:19;;;;;;;18.93;12.10;;;10.20;91.40;;;;;;4957300;28;20203;-47
2022/03/09 11:29:46;;;;;;;16.07;11.13;;;10.30;91.50;;;;;;4905496;29;20185;-47
2022/03/09 11:32:14;;;;;;;19.47;12.30;;;10.50;91.50;;;;;;4928129;29;20194;-48
2022/03/09 11:34:41;;;;;;;15.20;11.73;;;10.60;90.40;;;;;;4934653;29;20213;-48
2022/03/09 11:37:15;;;;;;;15.50;11.43;;;10.70;90.40;;;;;;4934667;29;20277;-48
2022/03/09 11:39:44;;;;;;;20.00;13.93;;;10.80;89.40;;;;;;4933172;29;20194;-48
2022/03/09 11:42:22;;;;;;;15.47;11.27;;;11.00;89.10;;;;;;4915470;29;20192;-48
2022/03/09 11:44:53;;;;;;;18.03;11.70;;;11.30;87.80;;;;;;4915521;29;20211;-49
2022/03/09 11:47:19;;;;;;;19.07;13.27;;;11.50;87.60;;;;;;4900169;29;20244;-48
2022/03/09 11:49:53;;;;;;;18.73;11.73;;;11.60;84.90;;;;;;4929782;29;20276;-48
2022/03/09 11:52:23;;;;;;;13.67;10.57;;;11.70;82.70;;;;;;4916455;29;20190;-48
2022/03/09 11:54:55;;;;;;;15.47;9.77;;;11.70;81.70;;;;;;4935685;29;20192;-48
2022/03/09 11:57:45;;;;;;;15.30;10.83;;;12.00;83.90;;;;;;4933510;29;20196;-48
2022/03/09 12:00:13;;;;;;;17.73;11.10;;;12.10;81.50;;;;;;4934106;29;20248;-48
2022/03/09 12:02:41;;;;;;;21.30;13.93;;;11.90;77.90;;;;;;4934466;29;20192;-48
2022/03/09 12:05:31;;;;;;;14.53;10.53;;;11.80;80.50;;;;;;4950412;29;20600;-48
2022/03/09 12:07:58;;;;;;;15.80;12.00;;;11.90;79.80;;;;;;4934594;29;20181;-49
2022/03/09 12:10:45;;;;;;;16.13;11.63;;;11.90;81.70;;;;;;4934397;29;20294;-49
2022/03/09 12:13:17;;;;;;;18.80;12.17;;;12.20;83.40;;;;;;4934253;29;20764;-49
2022/03/09 12:16:17;;;;;;;16.63;12.47;;;12.40;83.60;;;;;;4930072;29;20180;-48
2022/03/09 12:18:46;;;;;;;15.80;12.10;;;12.70;83.40;;;;;;4922510;29;20568;-49
2022/03/09 12:21:16;;;;;;;16.83;12.57;;;12.80;81.80;;;;;;4922729;29;20221;-48
2022/03/09 12:24:00;;;;;;;17.80;11.47;;;12.80;81.90;;;;;;4925877;29;20246;-49
2022/03/09 12:26:50;;;;;;;14.87;11.23;;;12.90;80.40;;;;;;4907360;29;20174;-49
2022/03/09 12:29:22;;;;;;;16.10;12.27;;;12.90;78.00;;;;;;4915006;29;20265;-48
2022/03/09 12:32:09;;;;;;;16.03;10.97;;;12.90;79.10;;;;;;4899398;29;20182;-49
2022/03/09 12:34:37;;;;;;;15.97;10.93;;;13.20;78.30;;;;;;4914822;29;20209;-49
2022/03/09 12:37:10;;;;;;;14.27;11.03;;;13.30;77.50;;;;;;4914889;29;20183;-48
2022/03/09 12:39:37;;;;;;;16.67;11.47;;;13.30;75.60;;;;;;4914962;29;20234;-48
2022/03/09 12:42:04;;;;;;;19.27;13.07;;;13.50;75.80;;;;;;4915112;29;20281;-49